Terminal Aerodrome Forecast
Issued by NWS

Home | Current Version | Previous Version | Text Only | Print | Product List | Glossary On
Versions: 1 2 3 4 5 6 7 8 9 10 11 12 13 14 15 16 17
000
FTUS44 KCRP 010522
TAFALI
TAF
KALI 010522Z 0106/0206 VRB05KT P6SM SCT100
     FM011000 VRB03KT 6SM BR SCT150
     FM011430 VRB06KT P6SM FEW035 SCT150
     FM011900 08010KT P6SM FEW250=

USA.gov is the U.S. government's official web portal to all federal, state and local government web resources and services.